Главная страница
METAR-TAF:

METAR-TAF

Аэропорты :

Порту-Алегри, Риу-Гранди-ду-Сул, Бразилия

широта: 30-01S, долгота: 051-13W, высота над уровнем моря: 47 м

Текущие метеонаблюдения

Эта сводка был подготовлена 10 часа и 42 минут назад, в 03:00 UTC
Ветер 4 Узел от западно-северо-западный
Температура 9°C
Влажность 93%
Давление 1027 hPa
Видимость: 3500 м
Рассеянная облачность на высоте 600 фута
Сплошная облачность на высоте 1200 фута
дождь

METAR: SBCO 210300Z 30004KT 3500 RA BKN006 OVC012 09/08 Q1027

Время: 10:42 (13:42 UTC)

Прогноз

Эта сводка был подготовлена 15 часа и 12 минут назад, в 22:30 UTC
Прогноз действительный с 21-го 00 UTC до 21-го 12 UTC
Ветер 5 Узел от северо-восточный
Видимость: 8000 м
Рассеянная облачность на высоте 800 фута

TAF: SBCO 202230Z 2100/2112 05005KT 8000 BKN008 TX08/2100Z TN06/2108Z RMK PEB

Метеонаблюдения и прогнозы для более 4000 аэропортов (сводки METAR и TAF).

Имеющиеся станции представлены на карте желтыми и красными точками.

Чтобы увидеть название станции, наведите на нее мышь.

Затем щелкните, чтобы увидеть метеонаблюдения и метеопрогнозы.

Управление картой: чтобы увеличить масштаб, щелкните зеленые кнопки с черным крестиком; чтобы уменьшить масштаб, щелкните зеленую кнопку с тире; для просмотра соседних карт щелкайте зеленые стрелки.


METAR-TAF: